createdAt,value
2019-01-12T00:00:56.000Z,37.723
2019-01-12T00:10:56.000Z,37.708
2019-01-12T00:20:56.000Z,37.682
2019-01-12T00:30:57.000Z,37.657
2019-01-12T00:40:57.000Z,37.805
2019-01-12T00:50:57.000Z,37.726
2019-01-12T01:00:57.000Z,37.81
2019-01-12T01:10:57.000Z,37.882
2019-01-12T01:30:57.000Z,38.015
2019-01-12T01:50:57.000Z,38.064
2019-01-12T02:01:00.000Z,38.125
2019-01-12T02:10:57.000Z,38.175
2019-01-12T02:20:57.000Z,38.205
2019-01-12T02:30:57.000Z,38.375
2019-01-12T02:40:57.000Z,38.372
2019-01-12T02:50:57.000Z,38.434
2019-01-12T03:00:58.000Z,38.312
2019-01-12T03:10:57.000Z,38.428
2019-01-12T03:20:57.000Z,38.458
2019-01-12T03:30:57.000Z,38.477
2019-01-12T03:40:57.000Z,38.571
2019-01-12T03:50:57.000Z,38.59
2019-01-12T04:00:57.000Z,38.696
2019-01-12T04:10:57.000Z,38.662
2019-01-12T04:20:57.000Z,38.712
2019-01-12T04:30:57.000Z,38.775
2019-01-12T04:40:57.000Z,38.783
2019-01-12T04:50:57.000Z,38.782
2019-01-12T05:00:57.000Z,38.866
2019-01-12T05:10:57.000Z,38.896
2019-01-12T05:20:57.000Z,38.404
2019-01-12T05:30:57.000Z,38.141
2019-01-12T05:40:57.000Z,38.129
2019-01-12T05:50:57.000Z,37.989
2019-01-12T06:00:57.000Z,37.989
2019-01-12T06:10:57.000Z,37.935
2019-01-12T06:20:57.000Z,38.022
2019-01-12T06:30:57.000Z,38.009
2019-01-12T06:40:57.000Z,37.923
2019-01-12T06:50:57.000Z,37.75
2019-01-12T07:00:57.000Z,37.685
2019-01-12T07:10:57.000Z,37.578
2019-01-12T07:20:57.000Z,37.362
2019-01-12T07:30:57.000Z,37.437
2019-01-12T07:40:58.000Z,37.479
2019-01-12T07:50:57.000Z,37.446
2019-01-12T08:00:57.000Z,37.219
2019-01-12T08:10:57.000Z,37.251
2019-01-12T08:20:57.000Z,37.058
2019-01-12T08:30:58.000Z,36.916
2019-01-12T08:40:58.000Z,36.646
2019-01-12T08:50:58.000Z,35.698
2019-01-12T09:00:58.000Z,36.268
2019-01-12T09:10:58.000Z,34.744
2019-01-12T09:20:59.000Z,35.391
2019-01-12T09:30:58.000Z,35.817
2019-01-12T09:40:58.000Z,36.134
2019-01-12T09:50:58.000Z,35.964
2019-01-12T10:00:58.000Z,36.108
2019-01-12T10:10:58.000Z,36.271
2019-01-12T10:20:58.000Z,36.389
2019-01-12T10:30:58.000Z,35.743
2019-01-12T10:40:58.000Z,36.272
2019-01-12T10:50:58.000Z,37.333
2019-01-12T11:00:58.000Z,37.31
2019-01-12T11:10:58.000Z,38.053
2019-01-12T11:20:59.000Z,37.815
2019-01-12T11:30:58.000Z,38.153
2019-01-12T11:40:58.000Z,38.407
2019-01-12T11:50:59.000Z,38.542
2019-01-12T12:00:59.000Z,39.001
2019-01-12T12:10:58.000Z,38.588
2019-01-12T12:20:58.000Z,38.805
2019-01-12T12:31:01.000Z,38.815
2019-01-12T12:41:00.000Z,38.791
2019-01-12T12:50:58.000Z,38.644
2019-01-12T13:00:58.000Z,38.464
2019-01-12T13:10:58.000Z,38.729
2019-01-12T13:20:58.000Z,39.233
2019-01-12T13:30:58.000Z,39.096
2019-01-12T13:40:58.000Z,39.076
2019-01-12T13:50:58.000Z,38.842
2019-01-12T14:00:58.000Z,38.905
2019-01-12T14:10:58.000Z,38.865
2019-01-12T14:20:58.000Z,38.642
2019-01-12T14:30:58.000Z,38.761
2019-01-12T14:40:58.000Z,38.609
2019-01-12T14:50:58.000Z,38.599
2019-01-12T15:01:00.000Z,38.592
2019-01-12T15:10:58.000Z,38.823
2019-01-12T15:20:58.000Z,38.927
2019-01-12T15:30:58.000Z,38.821
2019-01-12T15:40:59.000Z,38.831
2019-01-12T15:50:59.000Z,38.75
2019-01-12T16:00:58.000Z,38.726
2019-01-12T16:10:58.000Z,38.755
2019-01-12T16:20:58.000Z,38.591
2019-01-12T16:30:58.000Z,38.556
2019-01-12T16:40:59.000Z,38.414
2019-01-12T16:50:59.000Z,38.358
2019-01-12T17:00:59.000Z,38.356
2019-01-12T17:10:59.000Z,38.431
2019-01-12T17:20:59.000Z,38.397
2019-01-12T17:30:59.000Z,38.144
2019-01-12T17:40:59.000Z,38.341
2019-01-12T17:50:59.000Z,39.937
2019-01-12T18:00:59.000Z,39.886
2019-01-12T18:10:59.000Z,40.365
2019-01-12T18:20:59.000Z,40.454
2019-01-12T18:30:59.000Z,40.636
2019-01-12T18:40:59.000Z,40.541
2019-01-12T18:50:59.000Z,40.239
2019-01-12T19:00:59.000Z,40.194
2019-01-12T19:10:59.000Z,40.638
2019-01-12T19:21:00.000Z,40.433
2019-01-12T19:30:59.000Z,40.377
2019-01-12T19:41:02.000Z,40.377
2019-01-12T19:50:59.000Z,40.227
2019-01-12T20:00:59.000Z,40.28
2019-01-12T20:10:59.000Z,40.366
2019-01-12T20:20:59.000Z,40.332
2019-01-12T20:30:59.000Z,40.223
2019-01-12T20:40:59.000Z,40.148
2019-01-12T20:50:59.000Z,40.21
2019-01-12T21:00:59.000Z,40.188
2019-01-12T21:10:59.000Z,40.134
2019-01-12T21:20:59.000Z,39.896
2019-01-12T21:30:59.000Z,39.959
2019-01-12T21:40:59.000Z,39.829
2019-01-12T21:50:59.000Z,39.839
2019-01-12T22:01:01.000Z,39.829
2019-01-12T22:10:59.000Z,40.096
2019-01-12T22:20:59.000Z,39.729
2019-01-12T22:30:59.000Z,39.803
2019-01-12T22:40:59.000Z,39.943
2019-01-12T22:50:59.000Z,39.855
2019-01-12T23:00:59.000Z,39.94
2019-01-12T23:10:59.000Z,40.089
2019-01-12T23:20:59.000Z,40.004
2019-01-12T23:30:59.000Z,40.495
2019-01-12T23:40:59.000Z,40.572
2019-01-12T23:50:59.000Z,40.659
